createdAt,value
2022-12-19T00:00:06.759Z,98581.16
2022-12-19T00:02:38.026Z,98572.88
2022-12-19T00:05:07.343Z,98560.03
2022-12-19T00:07:34.051Z,98562.00
2022-12-19T00:10:00.671Z,98563.34
2022-12-19T00:12:27.333Z,98571.41
2022-12-19T00:14:53.992Z,98580.31
2022-12-19T00:17:21.452Z,98573.91
2022-12-19T00:19:48.113Z,98575.38
2022-12-19T00:22:23.542Z,98566.91
2022-12-19T00:24:50.415Z,98561.47
2022-12-19T00:27:17.115Z,98554.38
2022-12-19T00:29:43.794Z,98556.19
2022-12-19T00:32:10.409Z,98552.56
2022-12-19T00:34:39.992Z,98558.13
2022-12-19T00:37:06.626Z,98554.16
2022-12-19T00:39:34.603Z,98552.13
2022-12-19T00:42:01.490Z,98566.44
2022-12-19T00:44:28.183Z,98562.66
2022-12-19T00:46:54.860Z,98556.88
2022-12-19T00:49:21.571Z,98550.34
2022-12-19T00:51:48.306Z,98558.13
2022-12-19T00:54:15.570Z,98555.13
2022-12-19T00:56:43.728Z,98551.66
2022-12-19T00:59:10.694Z,98552.00
2022-12-19T01:01:39.962Z,98549.97
2022-12-19T01:06:59.775Z,98533.41
2022-12-19T01:09:29.712Z,98536.63
2022-12-19T01:12:16.437Z,98533.63
2022-12-19T01:14:43.105Z,98535.03
2022-12-19T01:17:09.763Z,98541.56
2022-12-19T01:19:41.882Z,98548.59
2022-12-19T01:22:11.276Z,98552.31
2022-12-19T01:24:38.064Z,98536.41
2022-12-19T01:27:06.150Z,98536.97
2022-12-19T01:29:32.950Z,98535.47
2022-12-19T01:32:01.540Z,98533.44
2022-12-19T01:34:30.784Z,98533.81
2022-12-19T01:36:57.454Z,98530.91
2022-12-19T01:39:24.056Z,98534.84
2022-12-19T01:41:53.485Z,98531.66
2022-12-19T01:44:24.640Z,98526.03
2022-12-19T01:46:54.190Z,98527.22
2022-12-19T01:49:26.685Z,98526.31
2022-12-19T01:51:56.550Z,98522.97
2022-12-19T01:54:26.969Z,98515.50
2022-12-19T01:56:57.433Z,98512.66
2022-12-19T01:59:29.730Z,98507.44
2022-12-19T02:02:04.003Z,98508.81
2022-12-19T02:04:32.715Z,98506.47
2022-12-19T02:07:04.270Z,98504.53
2022-12-19T02:09:44.767Z,98502.06
2022-12-19T02:12:11.503Z,98493.31
2022-12-19T02:14:40.286Z,98489.69
2022-12-19T02:17:14.004Z,98484.84
2022-12-19T02:20:17.869Z,98487.47
2022-12-19T02:22:59.814Z,98479.78
2022-12-19T02:25:43.630Z,98475.88
2022-12-19T02:28:35.412Z,98479.78
2022-12-19T02:31:19.370Z,98477.50
2022-12-19T02:33:56.425Z,98469.38
2022-12-19T02:36:34.902Z,98469.16
2022-12-19T02:39:10.765Z,98467.47
2022-12-19T02:41:43.494Z,98478.88
2022-12-19T02:44:14.002Z,98454.13
2022-12-19T02:46:44.657Z,98461.19
2022-12-19T02:49:13.099Z,98459.28
2022-12-19T02:51:47.691Z,98458.63
2022-12-19T02:54:15.617Z,98452.59
2022-12-19T02:56:50.586Z,98449.38
2022-12-19T02:59:39.590Z,98437.97
2022-12-19T03:02:15.300Z,98438.16
2022-12-19T03:04:52.530Z,98457.41
2022-12-19T03:07:29.197Z,98465.47
2022-12-19T03:10:05.289Z,98471.53
2022-12-19T03:12:37.475Z,98477.03
2022-12-19T03:15:05.511Z,98474.16
2022-12-19T03:17:37.391Z,98466.00
2022-12-19T03:20:09.028Z,98467.16
2022-12-19T03:22:35.843Z,98460.16
2022-12-19T03:25:03.162Z,98448.75
2022-12-19T03:27:36.405Z,98463.06
2022-12-19T03:30:07.495Z,98465.31
2022-12-19T03:32:38.655Z,98453.22
2022-12-19T03:35:10.698Z,98452.75
2022-12-19T03:37:40.976Z,98458.63
2022-12-19T03:40:11.298Z,98459.22
2022-12-19T03:42:59.832Z,98452.09
2022-12-19T03:45:33.740Z,98458.97
2022-12-19T03:48:07.859Z,98456.69
2022-12-19T03:50:46.748Z,98458.22
2022-12-19T03:53:24.697Z,98456.13
2022-12-19T03:55:59.469Z,98443.88
2022-12-19T03:58:31.530Z,98434.16
2022-12-19T04:01:00.786Z,98435.22
2022-12-19T04:03:30.561Z,98431.31
2022-12-19T04:05:59.412Z,98432.59
2022-12-19T04:08:28.099Z,98429.59
2022-12-19T04:10:59.349Z,98429.03
2022-12-19T04:13:34.924Z,98421.22
2022-12-19T04:16:08.827Z,98419.47
2022-12-19T04:18:37.389Z,98416.66
2022-12-19T04:21:09.485Z,98407.78
2022-12-19T04:23:41.469Z,98404.34
2022-12-19T04:26:10.097Z,98408.75
2022-12-19T04:28:41.919Z,98408.84
2022-12-19T04:31:13.211Z,98397.06
2022-12-19T04:33:41.483Z,98402.88
2022-12-19T04:36:10.176Z,98395.53
2022-12-19T04:38:36.927Z,98388.38
2022-12-19T04:41:03.692Z,98404.16
2022-12-19T04:43:30.342Z,98400.63
2022-12-19T04:45:57.799Z,98391.97
2022-12-19T04:48:28.992Z,98380.50
2022-12-19T04:50:57.104Z,98386.00
2022-12-19T04:53:24.025Z,98387.63
2022-12-19T04:55:50.663Z,98388.31
2022-12-19T04:58:21.621Z,98387.72
2022-12-19T05:00:49.028Z,98378.81
2022-12-19T05:03:15.810Z,98390.09
2022-12-19T05:05:42.579Z,98375.19
2022-12-19T05:08:11.357Z,98372.56
2022-12-19T05:10:38.280Z,98371.19
2022-12-19T05:13:04.965Z,98369.53
2022-12-19T05:15:31.916Z,98367.28
2022-12-19T05:17:58.736Z,98364.66
2022-12-19T05:20:25.548Z,98352.81
2022-12-19T05:22:52.144Z,98355.84
2022-12-19T05:25:20.089Z,98354.44
2022-12-19T05:27:46.757Z,98356.09
2022-12-19T05:30:13.944Z,98352.84
2022-12-19T05:32:40.593Z,98359.16
2022-12-19T05:35:08.320Z,98362.44
2022-12-19T05:37:37.000Z,98367.13
2022-12-19T05:40:04.255Z,98361.63
2022-12-19T05:42:32.257Z,98377.38
2022-12-19T05:44:58.932Z,98374.94
2022-12-19T05:47:25.573Z,98372.28
2022-12-19T05:49:52.272Z,98372.28
2022-12-19T05:52:18.906Z,98366.13
2022-12-19T05:54:46.007Z,98365.53
2022-12-19T05:57:13.003Z,98373.09
2022-12-19T05:59:41.029Z,98359.59
2022-12-19T06:02:07.947Z,98359.81
2022-12-19T06:04:37.725Z,98356.75
2022-12-19T06:07:04.474Z,98352.03
2022-12-19T06:09:31.115Z,98343.63
2022-12-19T06:11:57.785Z,98349.16
2022-12-19T06:14:24.421Z,98352.41
2022-12-19T06:16:52.966Z,98362.66
2022-12-19T06:19:19.761Z,98358.56
2022-12-19T06:21:48.524Z,98362.66
2022-12-19T06:24:15.479Z,98362.25
2022-12-19T06:26:42.593Z,98355.50
2022-12-19T06:29:09.646Z,98356.91
2022-12-19T06:31:36.361Z,98359.41
2022-12-19T06:34:04.539Z,98366.75
2022-12-19T06:36:31.557Z,98365.09
2022-12-19T06:38:58.981Z,98356.31
2022-12-19T06:41:58.771Z,98357.53
2022-12-19T06:44:25.526Z,98357.75
2022-12-19T06:46:53.101Z,98354.25
2022-12-19T06:49:21.228Z,98364.69
2022-12-19T06:51:47.998Z,98365.94
2022-12-19T06:54:15.178Z,98352.41
2022-12-19T06:56:44.062Z,98346.72
2022-12-19T06:59:14.338Z,98358.56
2022-12-19T07:01:52.822Z,98355.91
2022-12-19T07:04:26.877Z,98345.69
2022-12-19T07:06:55.335Z,98335.25
2022-12-19T07:09:22.617Z,98334.03
2022-12-19T07:11:49.244Z,98339.94
2022-12-19T07:14:16.227Z,98329.31
2022-12-19T07:16:43.105Z,98334.22
2022-12-19T07:19:10.363Z,98325.66
2022-12-19T07:21:41.199Z,98325.22
2022-12-19T07:24:09.215Z,98332.81
2022-12-19T07:26:38.560Z,98329.09
2022-12-19T07:29:06.320Z,98345.91
2022-12-19T07:31:36.220Z,98354.69
2022-12-19T07:34:03.120Z,98354.47
2022-12-19T07:36:32.583Z,98360.59
2022-12-19T07:39:01.010Z,98359.00
2022-12-19T07:41:28.286Z,98348.72
2022-12-19T07:43:54.958Z,98356.31
2022-12-19T07:46:22.374Z,98354.66
2022-12-19T07:48:49.141Z,98363.47
2022-12-19T07:51:15.993Z,98355.47
2022-12-19T07:53:42.902Z,98354.66
2022-12-19T07:56:11.093Z,98357.94
2022-12-19T07:58:40.768Z,98361.75
2022-12-19T08:01:12.308Z,98354.38
2022-12-19T08:03:39.325Z,98359.31
2022-12-19T08:06:09.423Z,98364.44
2022-12-19T08:08:37.980Z,98364.63
2022-12-19T08:11:14.578Z,98363.41
2022-12-19T08:13:46.490Z,98365.41
2022-12-19T08:16:15.325Z,62402.38
2022-12-19T08:18:42.552Z,62402.38
2022-12-19T08:21:10.992Z,62402.38
2022-12-19T08:23:39.106Z,98375.44
2022-12-19T08:26:09.133Z,98384.25
2022-12-19T08:28:39.573Z,98380.34
2022-12-19T08:31:07.944Z,98393.25
2022-12-19T08:33:34.981Z,98382.19
2022-12-19T08:36:04.696Z,98379.34
2022-12-19T08:38:32.242Z,98375.66
2022-12-19T08:40:59.385Z,98380.97
2022-12-19T08:43:27.276Z,98380.53
2022-12-19T08:45:55.673Z,98378.91
2022-12-19T08:48:23.862Z,98369.97
2022-12-19T08:50:52.101Z,98371.25
2022-12-19T08:53:24.296Z,98383.56
2022-12-19T08:55:55.356Z,98379.03
2022-12-19T08:58:22.066Z,98375.97
2022-12-19T09:00:55.475Z,98372.50
2022-12-19T09:03:26.300Z,98376.19
2022-12-19T09:06:07.004Z,98376.38
2022-12-19T09:08:36.763Z,98377.41
2022-12-19T09:11:05.711Z,98374.13
2022-12-19T09:13:33.762Z,98386.81
2022-12-19T09:16:01.794Z,98394.19
2022-12-19T09:18:31.668Z,98390.47
2022-12-19T09:21:00.048Z,98376.53
2022-12-19T09:23:29.398Z,98386.81
2022-12-19T09:25:57.641Z,98398.47
2022-12-19T09:28:27.587Z,98402.34
2022-12-19T09:30:56.259Z,62402.38
2022-12-19T09:33:24.242Z,98396.63
2022-12-19T09:35:55.436Z,98389.47
2022-12-19T09:38:26.095Z,98386.41
2022-12-19T09:41:08.213Z,98397.88
2022-12-19T09:43:51.184Z,98381.91
2022-12-19T09:46:20.456Z,98382.31
2022-12-19T09:48:55.174Z,98378.41
2022-12-19T09:51:34.723Z,98390.06
2022-12-19T09:54:09.404Z,98393.53
2022-12-19T09:56:46.472Z,98378.56
2022-12-19T09:59:22.569Z,98383.03
2022-12-19T10:01:58.817Z,62402.38
2022-12-19T10:04:29.783Z,98383.03
2022-12-19T10:07:20.416Z,98378.59
2022-12-19T10:12:33.128Z,98375.75
2022-12-19T10:12:50.960Z,98370.59
2022-12-19T10:15:26.174Z,98371.22
2022-12-19T10:18:32.218Z,98362.66
2022-12-19T10:21:06.070Z,98354.47
2022-12-19T10:24:01.146Z,98348.13
2022-12-19T10:26:34.918Z,98355.94
2022-12-19T10:29:19.408Z,98346.09
2022-12-19T10:31:55.324Z,98348.75
2022-12-19T10:34:24.676Z,98342.81
2022-12-19T10:37:24.328Z,98334.22
2022-12-19T10:39:57.617Z,98336.47
2022-12-19T10:42:35.195Z,98346.69
2022-12-19T10:45:10.383Z,98343.44
2022-12-19T10:47:37.839Z,98343.03
2022-12-19T10:50:09.590Z,98354.09
2022-12-19T10:52:52.242Z,98345.91
2022-12-19T10:55:36.298Z,98345.69
2022-12-19T10:58:18.478Z,98338.09
2022-12-19T11:01:12.613Z,98331.72
2022-12-19T11:03:42.215Z,98329.22
2022-12-19T11:06:44.873Z,98324.91
2022-12-19T11:09:25.051Z,98322.81
2022-12-19T11:14:30.819Z,98311.09
2022-12-19T11:20:39.514Z,98304.88
2022-12-19T11:27:13.193Z,98305.41
2022-12-19T11:29:19.366Z,98288.50
2022-12-19T11:29:43.196Z,98291.31
2022-12-19T11:30:47.445Z,62402.38
2022-12-19T11:32:41.206Z,98292.81
2022-12-19T11:35:18.892Z,98289.09
2022-12-19T11:37:55.210Z,98280.19
2022-12-19T11:40:34.801Z,98289.22
2022-12-19T11:43:43.334Z,98291.50
2022-12-19T11:46:01.876Z,98289.13
2022-12-19T11:48:37.774Z,98276.91
2022-12-19T11:51:15.816Z,98269.38
2022-12-19T11:53:51.435Z,98265.06
2022-12-19T11:56:23.534Z,98276.34
2022-12-19T11:58:54.324Z,98270.56
2022-12-19T12:01:40.464Z,98275.63
2022-12-19T12:04:37.357Z,98274.44
2022-12-19T12:07:08.439Z,98267.47
2022-12-19T12:15:34.544Z,98265.00
2022-12-19T12:22:57.287Z,98261.28
2022-12-19T12:24:54.924Z,98246.13
2022-12-19T12:30:59.924Z,98243.16
2022-12-19T12:31:07.745Z,98242.25
2022-12-19T12:31:44.255Z,98235.03
2022-12-19T12:31:44.391Z,98240.13
2022-12-19T12:31:58.104Z,98242.78
2022-12-19T12:35:38.454Z,98242.13
2022-12-19T12:39:53.346Z,98225.44
2022-12-19T12:42:37.727Z,98226.16
2022-12-19T12:45:17.725Z,98225.50
2022-12-19T12:47:48.274Z,98231.44
2022-12-19T12:50:17.614Z,98245.97
2022-12-19T12:52:49.253Z,98242.63
2022-12-19T12:55:21.181Z,98244.94
2022-12-19T12:57:48.350Z,98234.97
2022-12-19T13:00:25.888Z,98230.88
2022-12-19T13:03:04.840Z,98233.25
2022-12-19T13:05:40.603Z,62402.38
2022-12-19T13:08:46.623Z,62402.38
2022-12-19T13:11:52.802Z,62402.38
2022-12-19T13:14:45.175Z,62402.38
2022-12-19T13:17:13.367Z,62402.38
2022-12-19T13:19:53.614Z,62402.38
2022-12-19T13:22:37.709Z,62402.38
2022-12-19T13:25:45.259Z,62402.38
2022-12-19T13:28:38.584Z,62402.38
2022-12-19T13:31:23.307Z,62402.38
2022-12-19T13:34:19.703Z,62402.38
2022-12-19T13:39:49.812Z,62402.38
2022-12-19T13:40:09.170Z,62402.38
2022-12-19T13:43:10.019Z,62402.38
2022-12-19T13:45:48.321Z,62402.38
2022-12-19T13:48:21.372Z,62402.38
2022-12-19T13:50:49.471Z,62402.38
2022-12-19T13:53:19.302Z,62402.38
2022-12-19T13:55:47.322Z,62402.38
2022-12-19T13:58:28.677Z,62402.38
2022-12-19T14:01:04.786Z,62402.38
2022-12-19T14:03:40.028Z,62402.38
2022-12-19T14:06:16.720Z,62402.38
2022-12-19T14:09:46.210Z,62402.38
2022-12-19T14:12:19.190Z,62402.38
2022-12-19T14:14:47.482Z,98233.25
2022-12-19T14:17:18.400Z,62402.38
2022-12-19T14:19:48.001Z,62402.38
2022-12-19T14:22:25.827Z,98218.50
2022-12-19T14:25:44.126Z,98224.94
2022-12-19T14:28:18.863Z,98231.00
2022-12-19T14:30:40.905Z,98234.13
2022-12-19T14:33:39.480Z,98233.13
2022-12-19T14:36:14.696Z,98222.13
2022-12-19T14:39:26.669Z,98216.25
2022-12-19T14:42:07.673Z,98216.72
2022-12-19T14:52:34.174Z,62402.38
2022-12-19T14:54:10.026Z,62402.38
2022-12-19T14:54:24.626Z,62402.38
2022-12-19T14:54:45.180Z,62402.38
2022-12-19T14:59:00.780Z,62402.38
2022-12-19T15:01:29.990Z,62402.38
2022-12-19T15:04:48.952Z,62402.38
2022-12-19T15:07:06.860Z,62402.38
2022-12-19T15:11:03.854Z,62402.38
2022-12-19T15:14:57.777Z,98219.53
2022-12-19T15:15:45.661Z,98221.88
2022-12-19T15:18:24.745Z,98221.16
2022-12-19T15:20:53.533Z,98221.63
2022-12-19T15:23:23.485Z,98211.50
2022-12-19T15:26:08.452Z,98202.88
2022-12-19T15:28:40.628Z,98198.09
2022-12-19T15:31:17.234Z,98184.59
2022-12-19T15:34:14.471Z,98189.72
2022-12-19T15:36:30.795Z,98185.88
2022-12-19T15:38:58.941Z,98194.34
2022-12-19T15:41:26.021Z,98196.22
2022-12-19T15:44:03.838Z,98194.84
2022-12-19T15:46:32.377Z,98194.38
2022-12-19T15:48:59.168Z,98194.56
2022-12-19T15:51:25.832Z,98191.09
2022-12-19T15:53:52.522Z,98185.75
2022-12-19T15:56:27.224Z,98185.16
2022-12-19T15:58:56.691Z,98184.03
2022-12-19T16:01:23.803Z,98174.47
2022-12-19T16:03:51.120Z,98173.09
2022-12-19T16:06:18.572Z,98163.44
2022-12-19T16:08:45.382Z,98168.88
2022-12-19T16:11:18.567Z,98165.72
2022-12-19T16:13:51.282Z,98166.91
2022-12-19T16:16:18.557Z,98156.41
2022-12-19T16:18:45.804Z,98157.69
2022-12-19T16:21:19.157Z,98148.75
2022-12-19T16:23:46.209Z,98151.69
2022-12-19T16:26:23.995Z,98141.91
2022-12-19T16:28:52.289Z,98148.78
2022-12-19T16:31:23.688Z,98134.47
2022-12-19T16:33:50.625Z,98138.88
2022-12-19T16:36:17.346Z,98134.22
2022-12-19T16:38:43.986Z,98136.91
2022-12-19T16:41:15.858Z,98133.44
2022-12-19T16:43:44.781Z,98137.00
2022-12-19T16:46:17.564Z,98151.22
2022-12-19T16:48:44.658Z,98145.97
2022-12-19T16:51:18.685Z,98156.81
2022-12-19T16:53:47.393Z,98147.84
2022-12-19T16:56:23.326Z,98147.41
2022-12-19T16:58:50.726Z,98154.47
2022-12-19T17:01:19.329Z,98163.22
2022-12-19T17:03:46.493Z,98161.00
2022-12-19T17:06:16.220Z,98161.22
2022-12-19T17:08:43.045Z,98160.41
2022-12-19T17:11:18.333Z,98176.94
2022-12-19T17:13:47.728Z,98157.28
2022-12-19T17:16:14.652Z,98172.63
2022-12-19T17:18:45.009Z,98173.31
2022-12-19T17:21:16.662Z,98170.06
2022-12-19T17:23:43.722Z,98172.53
2022-12-19T17:26:17.304Z,98165.75
2022-12-19T17:28:48.108Z,98158.91
2022-12-19T17:31:22.188Z,98160.03
2022-12-19T17:33:50.411Z,98156.44
2022-12-19T17:36:21.308Z,98148.63
2022-12-19T17:38:51.712Z,98139.53
2022-12-19T17:41:18.302Z,98141.97
2022-12-19T17:43:45.128Z,98134.41
2022-12-19T17:46:17.952Z,98131.50
2022-12-19T17:48:45.310Z,98137.44
2022-12-19T17:51:13.907Z,98139.41
2022-12-19T17:53:40.694Z,98143.13
2022-12-19T17:56:12.512Z,98146.06
2022-12-19T17:58:39.236Z,98142.59
2022-12-19T18:01:06.362Z,98133.63
2022-12-19T18:03:33.371Z,98139.91
2022-12-19T18:06:00.100Z,98127.31
2022-12-19T18:08:30.110Z,98121.63
2022-12-19T18:10:59.475Z,98127.47
2022-12-19T18:13:27.205Z,98121.03
2022-12-19T18:15:57.753Z,98114.63
2022-12-19T18:18:28.426Z,98120.22
2022-12-19T18:20:55.830Z,98118.13
2022-12-19T18:23:23.785Z,98105.31
2022-12-19T18:25:57.597Z,98114.25
2022-12-19T18:28:27.992Z,98107.06
2022-12-19T18:30:58.462Z,98116.69
2022-12-19T18:33:25.424Z,98115.56
2022-12-19T18:35:52.453Z,98110.53
2022-12-19T18:38:21.054Z,98121.25
2022-12-19T18:40:49.472Z,98118.00
2022-12-19T18:43:18.975Z,98119.38
2022-12-19T18:45:49.042Z,98125.47
2022-12-19T18:48:23.324Z,98135.00
2022-12-19T18:50:50.211Z,98123.13
2022-12-19T18:53:21.680Z,98132.03
2022-12-19T18:55:49.116Z,98132.69
2022-12-19T18:58:17.242Z,98137.31
2022-12-19T19:00:44.796Z,62402.38
2022-12-19T19:03:15.543Z,62402.38
2022-12-19T19:05:43.843Z,98136.66
2022-12-19T19:08:17.249Z,98133.44
2022-12-19T19:10:46.473Z,98137.03
2022-12-19T19:13:13.971Z,98121.56
2022-12-19T19:15:47.206Z,98128.66
2022-12-19T19:18:15.977Z,98136.69
2022-12-19T19:20:44.985Z,98134.47
2022-12-19T19:23:14.148Z,98126.44
2022-12-19T19:25:41.120Z,62402.38
2022-12-19T19:28:10.118Z,98119.59
2022-12-19T19:30:38.537Z,98111.09
2022-12-19T19:33:13.372Z,98115.84
2022-12-19T19:35:43.810Z,98115.25
2022-12-19T19:38:11.838Z,98117.13
2022-12-19T19:40:38.662Z,98128.53
2022-12-19T19:43:07.213Z,98127.63
2022-12-19T19:45:38.152Z,98117.91
2022-12-19T19:48:11.588Z,98114.13
2022-12-19T19:50:39.552Z,62402.38
2022-12-19T19:53:07.300Z,62402.38
2022-12-19T19:55:34.316Z,62402.38
2022-12-19T19:58:01.287Z,62402.38
2022-12-19T20:00:28.169Z,62402.38
2022-12-19T20:02:55.093Z,62402.38
2022-12-19T20:05:23.520Z,62402.38
2022-12-19T20:07:50.550Z,62402.38
2022-12-19T20:10:17.407Z,62402.38
2022-12-19T20:12:44.656Z,62402.38
2022-12-19T20:15:11.993Z,62402.38
2022-12-19T20:17:39.611Z,62402.38
2022-12-19T20:20:08.536Z,62402.38
2022-12-19T20:22:36.863Z,62402.38
2022-12-19T20:25:04.503Z,62402.38
2022-12-19T20:27:32.035Z,62402.38
2022-12-19T20:29:58.704Z,62402.38
2022-12-19T20:32:25.599Z,62402.38
2022-12-19T20:34:52.413Z,62402.38
2022-12-19T20:37:19.197Z,62402.38
2022-12-19T20:39:47.259Z,62402.38
2022-12-19T20:42:13.930Z,62402.38
2022-12-19T20:44:40.745Z,62402.38
2022-12-19T20:47:07.506Z,62402.38
2022-12-19T20:49:34.472Z,62402.38
2022-12-19T20:52:01.712Z,62402.38
2022-12-19T20:54:28.445Z,62402.38
2022-12-19T20:56:56.824Z,62402.38
2022-12-19T20:59:23.714Z,62402.38
2022-12-19T21:01:50.488Z,62402.38
2022-12-19T21:04:18.907Z,62402.38
2022-12-19T21:06:45.702Z,62402.38
2022-12-19T21:09:12.518Z,62402.38
2022-12-19T21:11:39.436Z,62402.38
2022-12-19T21:14:08.003Z,62402.38
2022-12-19T21:16:36.900Z,62402.38
2022-12-19T21:19:04.394Z,62402.38
2022-12-19T21:21:31.173Z,62402.38
2022-12-19T21:23:58.007Z,62402.38
2022-12-19T21:26:26.021Z,62402.38
2022-12-19T21:28:53.890Z,62402.38
2022-12-19T21:31:25.055Z,62402.38
2022-12-19T21:33:54.847Z,62402.38
2022-12-19T21:36:23.174Z,62402.38
2022-12-19T21:38:53.352Z,62402.38
2022-12-19T21:41:20.544Z,62402.38
2022-12-19T21:43:48.959Z,62402.38
2022-12-19T21:46:17.779Z,62402.38
2022-12-19T21:48:47.889Z,62402.38
2022-12-19T21:51:16.248Z,62402.38
2022-12-19T21:53:43.123Z,62402.38
2022-12-19T21:56:22.437Z,62402.38
2022-12-19T21:58:50.295Z,62402.38
2022-12-19T22:01:17.222Z,62402.38
2022-12-19T22:03:45.797Z,62402.38
2022-12-19T22:06:17.987Z,62402.38
2022-12-19T22:08:48.360Z,62402.38
2022-12-19T22:11:17.207Z,62402.38
2022-12-19T22:13:45.739Z,62402.38
2022-12-19T22:16:13.254Z,62402.38
2022-12-19T22:18:41.160Z,62402.38
2022-12-19T22:21:11.727Z,62402.38
2022-12-19T22:23:38.809Z,62402.38
2022-12-19T22:26:07.755Z,62402.38
2022-12-19T22:28:36.582Z,62402.38
2022-12-19T22:31:04.947Z,62402.38
2022-12-19T22:33:33.045Z,62402.38
2022-12-19T22:36:05.455Z,62402.38
2022-12-19T22:38:33.499Z,62402.38
2022-12-19T22:41:04.008Z,62402.38
2022-12-19T22:43:30.998Z,62402.38
2022-12-19T22:45:58.549Z,62402.38
2022-12-19T22:48:25.404Z,62402.38
2022-12-19T22:50:52.055Z,62402.38
2022-12-19T22:53:18.788Z,62402.38
2022-12-19T22:55:46.749Z,62402.38
2022-12-19T22:58:13.969Z,62402.38
2022-12-19T23:00:42.032Z,62402.38
2022-12-19T23:03:08.985Z,62402.38
2022-12-19T23:05:36.159Z,62402.38
2022-12-19T23:08:03.293Z,62402.38
2022-12-19T23:10:30.137Z,62402.38
2022-12-19T23:12:58.241Z,62402.38
2022-12-19T23:15:24.960Z,62402.38
2022-12-19T23:17:51.613Z,62402.38
2022-12-19T23:20:18.423Z,62402.38
2022-12-19T23:22:45.204Z,62402.38
2022-12-19T23:25:11.986Z,62402.38
2022-12-19T23:27:40.752Z,62402.38
2022-12-19T23:30:09.850Z,62402.38
2022-12-19T23:32:36.609Z,62402.38
2022-12-19T23:35:03.324Z,62402.38
2022-12-19T23:37:30.033Z,62402.38
2022-12-19T23:39:57.587Z,62402.38
2022-12-19T23:42:24.305Z,62402.38
2022-12-19T23:44:51.324Z,62402.38
2022-12-19T23:47:19.355Z,62402.38
2022-12-19T23:49:46.040Z,62402.38
2022-12-19T23:52:12.878Z,62402.38
2022-12-19T23:54:39.509Z,62402.38
2022-12-19T23:57:06.168Z,62402.38
2022-12-19T23:59:32.851Z,62402.38
